Terminal Aerodrome Forecast
Issued by NWS

Current Version | Previous Version | Graphics & Text | Print | Product List | Glossary On
Versions: 1 2 3 4 5 6 7 8 9 10 11 12 13 14 15 16 17 18 19 20 21 22 23 24 25 26 27 28 29 30 31 32
925
FTUS41 KILN 021120
TAFLUK
TAF
KLUK 021120Z 0212/0312 30006KT P6SM SCT008 BKN012
      TEMPO 0212/0213 5SM BR BKN008
     FM021500 26008KT P6SM BKN028
     FM030100 36005KT P6SM SCT020 OVC050
     FM030800 36004KT 4SM BR OVC050
      TEMPO 0309/0312 1SM BR SCT070=

USA.gov is the U.S. government's official web portal to all federal, state and local government web resources and services.